Quenames — WTU9038 — position and weather

sailwx.info

Track history (hours):
 
Tides and Currents Weather Stations Pressure Air Temp Water Temp Dewpoint Dewpoint Depression Visibility Wind Speed Wind Dir Waves Ship Positions

Quenames

Owner: BOSTON MARINE TRANSPORT INC, EAST BOSTON, MA. More information available from US FCC via Universal Licensing System and Coast Guard Vessel Documentation Center.

Last reported at 2016-Jul-26 02:33 UTC. Time now 2016-Jul-26 02:37 UTC.
Position N 40°39' W 074°05'.

Length 23 m; draft 3 m.

Type: Tug. MMSI: 367022790.

Date/timePositionNaut miles runAvg speedWind from/ knotsBaromVisibWave heightAir tempDewpointWater temp
2016-Jul-26 02:33N 40°39' W 074°05'0 0.0
2016-Jul-26 01:33N 40°39' W 074°05'0 0.0
2016-Jul-26 00:33N 40°39' W 074°05'2 2.2
2016-Jul-25 23:33N 40°39' W 074°08'0 0.0
2016-Jul-25 11:33N 40°39' W 074°08'9 8.6
2016-Jul-25 10:33N 40°43' W 073°58'2 0.1
2016-Jul-24 14:33N 40°45' W 073°58'8 7.6
2016-Jul-24 13:33N 40°39' W 074°04'6 0.5
2016-Jul-24 00:13N 40°37' W 074°12'3 4.1
2016-Jul-23 23:32N 40°39' W 074°09'8 8.3
2016-Jul-23 22:33N 40°42' W 073°60'6 0.1
2016-Jul-21 22:06N 40°48' W 073°55'3 5.3
2016-Jul-21 21:33N 40°46' W 073°57'4 4.5
2016-Jul-21 20:33N 40°42' W 074°00'5 4.8
2016-Jul-21 19:33N 40°39' W 074°05'9 1.1
2016-Jul-21 11:22N 40°33' W 074°15'4 1.1
2016-Jul-21 07:25N 40°37' W 074°12'5 5.5
2016-Jul-21 06:33N 40°39' W 074°07'0 0.0
2016-Jul-21 05:33N 40°39' W 074°07'0 0.0
2016-Jul-21 04:33N 40°39' W 074°07'5 1.5
2016-Jul-21 01:16N 40°37' W 074°12'3 4.7
2016-Jul-21 00:34N 40°39' W 074°09'7 7.1
2016-Jul-20 23:33N 40°42' W 074°00'5 4.8
2016-Jul-20 22:33N 40°46' W 073°57'0 0.0
2016-Jul-18 19:33N 40°46' W 073°57'5 5.0
2016-Jul-18 18:33N 40°41' W 074°01'2 2.4
2016-Jul-18 17:33N 40°40' W 074°03'4 3.9
2016-Jul-18 16:33N 40°39' W 074°08'9 2.3
2016-Jul-18 12:33N 40°31' W 074°15'0 0.0
2016-Jul-18 11:26N 40°31' W 074°15'8 0.3
2016-Jul-17 11:17N 40°38' W 074°11'3 4.6
2016-Jul-17 10:32N 40°39' W 074°07'0 0.0
2016-Jul-17 08:23N 40°39' W 074°07'0 0.0
2016-Jul-17 07:33N 40°39' W 074°07'0 0.0
2016-Jul-17 06:33N 40°39' W 074°07'1 0.7
2016-Jul-17 04:33N 40°39' W 074°05'0 0.0
2016-Jul-17 03:33N 40°39' W 074°05'0 0.0
2016-Jul-17 02:33N 40°39' W 074°05'0 0.0
2016-Jul-17 01:33N 40°39' W 074°05'0 0.0
2016-Jul-17 00:33N 40°39' W 074°05'0 0.0
2016-Jul-16 23:33N 40°39' W 074°05'0 0.0
2016-Jul-16 22:33N 40°39' W 074°05'0 0.0
2016-Jul-16 21:33N 40°39' W 074°05'0 0.0
2016-Jul-16 20:33N 40°39' W 074°05'0 0.0
2016-Jul-16 19:33N 40°39' W 074°05'0 0.0
2016-Jul-16 18:33N 40°39' W 074°05'0 0.0
2016-Jul-16 17:33N 40°39' W 074°05'0 0.0
2016-Jul-16 16:33N 40°39' W 074°05'0 0.0
2016-Jul-16 15:33N 40°39' W 074°05'0 0.0
2016-Jul-16 14:33N 40°39' W 074°05'0 0.0
2016-Jul-16 13:33N 40°39' W 074°05'0 0.0
2016-Jul-16 12:33N 40°39' W 074°05'0 0.0
2016-Jul-16 11:33N 40°39' W 074°05'0 0.1
2016-Jul-16 10:33N 40°39' W 074°05'2 2.0
2016-Jul-16 09:33N 40°39' W 074°02'0 0.0
2016-Jul-16 08:33N 40°39' W 074°02'0 0.0
2016-Jul-16 07:33N 40°39' W 074°02'0 0.1
2016-Jul-16 06:33N 40°39' W 074°02'0 0.0
2016-Jul-16 04:33N 40°39' W 074°03'0 0.0
2016-Jul-16 03:33N 40°39' W 074°02'0 0.0
2016-Jul-16 02:33N 40°39' W 074°03'0 0.0
2016-Jul-16 01:33N 40°39' W 074°03'  
Track history (hours):
 
Tides and Currents Weather Stations Pressure Air Temp Water Temp Dewpoint Dewpoint Depression Visibility Wind Speed Wind Dir Waves Ship Positions

Quenames

Owner: BOSTON MARINE TRANSPORT INC, EAST BOSTON, MA. More information available from US FCC via Universal Licensing System and Coast Guard Vessel Documentation Center.

Last reported at 2016-Jul-26 02:33 UTC. Time now 2016-Jul-26 02:37 UTC.
Position N 40°39' W 074°05'.

Length 23 m; draft 3 m.

Type: Tug. MMSI: 367022790.

Date/timePositionNaut miles runAvg speedWind from/ knotsBaromVisibWave heightAir tempDewpointWater temp
2016-Jul-26 02:33N 40°39' W 074°05'0 0.0
2016-Jul-26 01:33N 40°39' W 074°05'0 0.0
2016-Jul-26 00:33N 40°39' W 074°05'2 2.2
2016-Jul-25 23:33N 40°39' W 074°08'0 0.0
2016-Jul-25 11:33N 40°39' W 074°08'9 8.6
2016-Jul-25 10:33N 40°43' W 073°58'2 0.1
2016-Jul-24 14:33N 40°45' W 073°58'8 7.6
2016-Jul-24 13:33N 40°39' W 074°04'6 0.5
2016-Jul-24 00:13N 40°37' W 074°12'3 4.1
2016-Jul-23 23:32N 40°39' W 074°09'8 8.3
2016-Jul-23 22:33N 40°42' W 073°60'6 0.1
2016-Jul-21 22:06N 40°48' W 073°55'3 5.3
2016-Jul-21 21:33N 40°46' W 073°57'4 4.5
2016-Jul-21 20:33N 40°42' W 074°00'5 4.8
2016-Jul-21 19:33N 40°39' W 074°05'9 1.1
2016-Jul-21 11:22N 40°33' W 074°15'4 1.1
2016-Jul-21 07:25N 40°37' W 074°12'5 5.5
2016-Jul-21 06:33N 40°39' W 074°07'0 0.0
2016-Jul-21 05:33N 40°39' W 074°07'0 0.0
2016-Jul-21 04:33N 40°39' W 074°07'5 1.5
2016-Jul-21 01:16N 40°37' W 074°12'3 4.7
2016-Jul-21 00:34N 40°39' W 074°09'7 7.1
2016-Jul-20 23:33N 40°42' W 074°00'5 4.8
2016-Jul-20 22:33N 40°46' W 073°57'0 0.0
2016-Jul-18 19:33N 40°46' W 073°57'5 5.0
2016-Jul-18 18:33N 40°41' W 074°01'2 2.4
2016-Jul-18 17:33N 40°40' W 074°03'4 3.9
2016-Jul-18 16:33N 40°39' W 074°08'9 2.3
2016-Jul-18 12:33N 40°31' W 074°15'0 0.0
2016-Jul-18 11:26N 40°31' W 074°15'8 0.3
2016-Jul-17 11:17N 40°38' W 074°11'3 4.6
2016-Jul-17 10:32N 40°39' W 074°07'0 0.0
2016-Jul-17 08:23N 40°39' W 074°07'0 0.0
2016-Jul-17 07:33N 40°39' W 074°07'0 0.0
2016-Jul-17 06:33N 40°39' W 074°07'1 0.7
2016-Jul-17 04:33N 40°39' W 074°05'0 0.0
2016-Jul-17 03:33N 40°39' W 074°05'0 0.0
2016-Jul-17 02:33N 40°39' W 074°05'0 0.0
2016-Jul-17 01:33N 40°39' W 074°05'0 0.0
2016-Jul-17 00:33N 40°39' W 074°05'0 0.0
2016-Jul-16 23:33N 40°39' W 074°05'0 0.0
2016-Jul-16 22:33N 40°39' W 074°05'0 0.0
2016-Jul-16 21:33N 40°39' W 074°05'0 0.0
2016-Jul-16 20:33N 40°39' W 074°05'0 0.0
2016-Jul-16 19:33N 40°39' W 074°05'0 0.0
2016-Jul-16 18:33N 40°39' W 074°05'0 0.0
2016-Jul-16 17:33N 40°39' W 074°05'0 0.0
2016-Jul-16 16:33N 40°39' W 074°05'0 0.0
2016-Jul-16 15:33N 40°39' W 074°05'0 0.0
2016-Jul-16 14:33N 40°39' W 074°05'0 0.0
2016-Jul-16 13:33N 40°39' W 074°05'0 0.0
2016-Jul-16 12:33N 40°39' W 074°05'0 0.0
2016-Jul-16 11:33N 40°39' W 074°05'0 0.1
2016-Jul-16 10:33N 40°39' W 074°05'2 2.0
2016-Jul-16 09:33N 40°39' W 074°02'0 0.0
2016-Jul-16 08:33N 40°39' W 074°02'0 0.0
2016-Jul-16 07:33N 40°39' W 074°02'0 0.1
2016-Jul-16 06:33N 40°39' W 074°02'0 0.0
2016-Jul-16 04:33N 40°39' W 074°03'0 0.0
2016-Jul-16 03:33N 40°39' W 074°02'0 0.0
2016-Jul-16 02:33N 40°39' W 074°03'0 0.0
2016-Jul-16 01:33N 40°39' W 074°03'  

Dump ship's entire track history